sensor_id;sensor_type;location;lat;lon;timestamp;P1;durP1;ratioP1;P2;durP2;ratioP2
19927;SDS011;10126;50.876;4.470;2022-07-11T00:00:09;0.10;;;0.10;;
19927;SDS011;10126;50.876;4.470;2022-07-11T00:02:11;0.20;;;0.20;;
19927;SDS011;10126;50.876;4.470;2022-07-11T00:04:12;0.20;;;0.20;;
19927;SDS011;10126;50.876;4.470;2022-07-11T00:06:13;0.10;;;0.10;;
19927;SDS011;10126;50.876;4.470;2022-07-11T00:08:13;0.17;;;0.17;;
19927;SDS011;10126;50.876;4.470;2022-07-11T00:10:14;0.10;;;0.10;;
19927;SDS011;10126;50.876;4.470;2022-07-11T00:12:15;0.10;;;0.10;;
19927;SDS011;10126;50.876;4.470;2022-07-11T00:14:16;0.13;;;0.13;;
19927;SDS011;10126;50.876;4.470;2022-07-11T00:16:17;0.10;;;0.10;;
19927;SDS011;10126;50.876;4.470;2022-07-11T00:18:18;0.10;;;0.10;;
19927;SDS011;10126;50.876;4.470;2022-07-11T00:20:19;0.13;;;0.13;;
19927;SDS011;10126;50.876;4.470;2022-07-11T00:22:19;0.20;;;0.20;;
19927;SDS011;10126;50.876;4.470;2022-07-11T00:24:20;0.10;;;0.10;;
19927;SDS011;10126;50.876;4.470;2022-07-11T00:26:21;0.10;;;0.10;;
19927;SDS011;10126;50.876;4.470;2022-07-11T00:28:22;0.10;;;0.10;;
19927;SDS011;10126;50.876;4.470;2022-07-11T00:30:22;0.10;;;0.10;;
19927;SDS011;10126;50.876;4.470;2022-07-11T00:32:23;0.10;;;0.10;;
19927;SDS011;10126;50.876;4.470;2022-07-11T00:34:24;0.20;;;0.20;;
19927;SDS011;10126;50.876;4.470;2022-07-11T00:36:25;0.20;;;0.20;;
19927;SDS011;10126;50.876;4.470;2022-07-11T00:38:25;0.10;;;0.10;;
19927;SDS011;10126;50.876;4.470;2022-07-11T00:40:26;0.10;;;0.10;;
19927;SDS011;10126;50.876;4.470;2022-07-11T00:42:27;0.10;;;0.10;;
19927;SDS011;10126;50.876;4.470;2022-07-11T00:44:27;0.10;;;0.10;;
19927;SDS011;10126;50.876;4.470;2022-07-11T00:46:28;0.10;;;0.10;;
19927;SDS011;10126;50.876;4.470;2022-07-11T00:48:30;0.10;;;0.10;;
19927;SDS011;10126;50.876;4.470;2022-07-11T00:50:30;0.10;;;0.10;;
19927;SDS011;10126;50.876;4.470;2022-07-11T00:52:31;0.10;;;0.10;;
19927;SDS011;10126;50.876;4.470;2022-07-11T00:54:33;0.10;;;0.10;;
19927;SDS011;10126;50.876;4.470;2022-07-11T00:56:34;0.20;;;0.20;;
19927;SDS011;10126;50.876;4.470;2022-07-11T00:58:35;0.10;;;0.10;;
19927;SDS011;10126;50.876;4.470;2022-07-11T01:00:36;0.10;;;0.10;;
19927;SDS011;10126;50.876;4.470;2022-07-11T01:02:37;0.10;;;0.10;;
19927;SDS011;10126;50.876;4.470;2022-07-11T01:04:37;0.10;;;0.10;;
19927;SDS011;10126;50.876;4.470;2022-07-11T01:06:38;0.10;;;0.10;;
19927;SDS011;10126;50.876;4.470;2022-07-11T01:08:39;0.10;;;0.10;;
19927;SDS011;10126;50.876;4.470;2022-07-11T01:10:39;0.10;;;0.10;;
19927;SDS011;10126;50.876;4.470;2022-07-11T01:12:40;0.20;;;0.20;;
19927;SDS011;10126;50.876;4.470;2022-07-11T01:14:50;0.10;;;0.10;;
19927;SDS011;10126;50.876;4.470;2022-07-11T01:16:52;0.10;;;0.10;;
19927;SDS011;10126;50.876;4.470;2022-07-11T01:18:53;0.10;;;0.10;;
19927;SDS011;10126;50.876;4.470;2022-07-11T01:20:55;0.20;;;0.20;;
19927;SDS011;10126;50.876;4.470;2022-07-11T01:23:16;0.10;;;0.10;;
19927;SDS011;10126;50.876;4.470;2022-07-11T01:25:17;0.10;;;0.10;;
19927;SDS011;10126;50.876;4.470;2022-07-11T01:27:30;0.20;;;0.20;;
19927;SDS011;10126;50.876;4.470;2022-07-11T01:29:32;0.10;;;0.10;;
19927;SDS011;10126;50.876;4.470;2022-07-11T01:31:33;0.20;;;0.20;;
19927;SDS011;10126;50.876;4.470;2022-07-11T01:33:34;0.20;;;0.20;;
19927;SDS011;10126;50.876;4.470;2022-07-11T01:35:34;0.20;;;0.20;;
19927;SDS011;10126;50.876;4.470;2022-07-11T01:37:35;0.20;;;0.20;;
19927;SDS011;10126;50.876;4.470;2022-07-11T01:39:36;0.20;;;0.20;;
19927;SDS011;10126;50.876;4.470;2022-07-11T01:41:37;0.20;;;0.20;;
19927;SDS011;10126;50.876;4.470;2022-07-11T01:43:37;0.20;;;0.20;;
19927;SDS011;10126;50.876;4.470;2022-07-11T01:45:38;0.10;;;0.10;;
19927;SDS011;10126;50.876;4.470;2022-07-11T01:47:44;0.10;;;0.10;;
19927;SDS011;10126;50.876;4.470;2022-07-11T01:49:45;0.20;;;0.20;;
19927;SDS011;10126;50.876;4.470;2022-07-11T01:51:46;0.10;;;0.10;;
19927;SDS011;10126;50.876;4.470;2022-07-11T01:53:47;0.10;;;0.10;;
19927;SDS011;10126;50.876;4.470;2022-07-11T01:55:48;0.10;;;0.10;;
19927;SDS011;10126;50.876;4.470;2022-07-11T01:57:48;0.20;;;0.20;;
19927;SDS011;10126;50.876;4.470;2022-07-11T01:59:49;0.20;;;0.20;;
19927;SDS011;10126;50.876;4.470;2022-07-11T02:01:50;0.20;;;0.20;;
19927;SDS011;10126;50.876;4.470;2022-07-11T02:03:51;0.10;;;0.10;;
19927;SDS011;10126;50.876;4.470;2022-07-11T02:05:51;0.13;;;0.13;;
19927;SDS011;10126;50.876;4.470;2022-07-11T02:07:52;0.20;;;0.20;;
19927;SDS011;10126;50.876;4.470;2022-07-11T02:10:11;0.20;;;0.20;;
19927;SDS011;10126;50.876;4.470;2022-07-11T02:12:12;0.20;;;0.20;;
19927;SDS011;10126;50.876;4.470;2022-07-11T02:14:12;0.20;;;0.20;;
19927;SDS011;10126;50.876;4.470;2022-07-11T02:16:13;0.20;;;0.20;;
19927;SDS011;10126;50.876;4.470;2022-07-11T02:18:14;0.10;;;0.10;;
19927;SDS011;10126;50.876;4.470;2022-07-11T02:20:15;0.10;;;0.10;;
19927;SDS011;10126;50.876;4.470;2022-07-11T02:22:16;0.10;;;0.10;;
19927;SDS011;10126;50.876;4.470;2022-07-11T02:24:16;0.10;;;0.10;;
19927;SDS011;10126;50.876;4.470;2022-07-11T02:26:17;0.20;;;0.20;;
19927;SDS011;10126;50.876;4.470;2022-07-11T02:28:17;0.20;;;0.20;;
19927;SDS011;10126;50.876;4.470;2022-07-11T02:30:18;0.20;;;0.20;;
19927;SDS011;10126;50.876;4.470;2022-07-11T02:32:19;0.10;;;0.10;;
19927;SDS011;10126;50.876;4.470;2022-07-11T02:34:19;0.20;;;0.20;;
19927;SDS011;10126;50.876;4.470;2022-07-11T02:36:20;0.10;;;0.10;;
19927;SDS011;10126;50.876;4.470;2022-07-11T02:38:21;0.20;;;0.20;;
19927;SDS011;10126;50.876;4.470;2022-07-11T02:40:22;0.10;;;0.10;;
19927;SDS011;10126;50.876;4.470;2022-07-11T02:42:23;0.20;;;0.20;;
19927;SDS011;10126;50.876;4.470;2022-07-11T02:44:23;0.20;;;0.20;;
19927;SDS011;10126;50.876;4.470;2022-07-11T02:46:24;0.20;;;0.20;;
19927;SDS011;10126;50.876;4.470;2022-07-11T02:48:25;0.20;;;0.20;;
19927;SDS011;10126;50.876;4.470;2022-07-11T02:50:25;0.20;;;0.20;;
19927;SDS011;10126;50.876;4.470;2022-07-11T02:52:26;0.20;;;0.20;;
19927;SDS011;10126;50.876;4.470;2022-07-11T02:54:27;0.20;;;0.20;;
19927;SDS011;10126;50.876;4.470;2022-07-11T02:56:28;0.20;;;0.20;;
19927;SDS011;10126;50.876;4.470;2022-07-11T02:58:29;0.20;;;0.20;;
19927;SDS011;10126;50.876;4.470;2022-07-11T03:00:30;0.10;;;0.10;;
19927;SDS011;10126;50.876;4.470;2022-07-11T03:02:31;0.20;;;0.20;;
19927;SDS011;10126;50.876;4.470;2022-07-11T03:04:32;0.20;;;0.20;;
19927;SDS011;10126;50.876;4.470;2022-07-11T03:06:32;0.20;;;0.20;;
19927;SDS011;10126;50.876;4.470;2022-07-11T03:08:33;0.17;;;0.17;;
19927;SDS011;10126;50.876;4.470;2022-07-11T03:10:34;0.20;;;0.20;;
19927;SDS011;10126;50.876;4.470;2022-07-11T03:12:34;0.10;;;0.10;;
19927;SDS011;10126;50.876;4.470;2022-07-11T03:14:35;0.20;;;0.20;;
19927;SDS011;10126;50.876;4.470;2022-07-11T03:16:36;0.10;;;0.10;;
19927;SDS011;10126;50.876;4.470;2022-07-11T03:18:36;0.17;;;0.17;;
19927;SDS011;10126;50.876;4.470;2022-07-11T03:20:37;0.20;;;0.20;;
19927;SDS011;10126;50.876;4.470;2022-07-11T03:22:38;0.20;;;0.20;;
19927;SDS011;10126;50.876;4.470;2022-07-11T03:24:38;0.20;;;0.20;;
19927;SDS011;10126;50.876;4.470;2022-07-11T03:26:42;0.20;;;0.20;;
19927;SDS011;10126;50.876;4.470;2022-07-11T03:28:43;0.20;;;0.20;;
19927;SDS011;10126;50.876;4.470;2022-07-11T03:30:44;0.20;;;0.20;;
19927;SDS011;10126;50.876;4.470;2022-07-11T03:32:44;0.20;;;0.20;;
19927;SDS011;10126;50.876;4.470;2022-07-11T03:34:48;0.30;;;0.30;;
19927;SDS011;10126;50.876;4.470;2022-07-11T03:37:07;0.20;;;0.20;;
19927;SDS011;10126;50.876;4.470;2022-07-11T03:39:10;0.20;;;0.20;;
19927;SDS011;10126;50.876;4.470;2022-07-11T03:41:10;0.20;;;0.20;;
19927;SDS011;10126;50.876;4.470;2022-07-11T03:43:11;0.20;;;0.20;;
19927;SDS011;10126;50.876;4.470;2022-07-11T03:45:11;0.10;;;0.10;;
19927;SDS011;10126;50.876;4.470;2022-07-11T03:47:12;0.20;;;0.20;;
19927;SDS011;10126;50.876;4.470;2022-07-11T03:49:13;0.20;;;0.20;;
19927;SDS011;10126;50.876;4.470;2022-07-11T03:51:14;0.20;;;0.20;;
19927;SDS011;10126;50.876;4.470;2022-07-11T03:53:16;0.20;;;0.20;;
19927;SDS011;10126;50.876;4.470;2022-07-11T03:55:17;0.10;;;0.10;;
19927;SDS011;10126;50.876;4.470;2022-07-11T03:57:18;0.20;;;0.20;;
19927;SDS011;10126;50.876;4.470;2022-07-11T03:59:18;0.20;;;0.20;;
19927;SDS011;10126;50.876;4.470;2022-07-11T04:01:19;0.20;;;0.20;;
19927;SDS011;10126;50.876;4.470;2022-07-11T04:03:19;0.20;;;0.20;;
19927;SDS011;10126;50.876;4.470;2022-07-11T04:05:20;0.20;;;0.20;;
19927;SDS011;10126;50.876;4.470;2022-07-11T04:07:21;0.10;;;0.10;;
19927;SDS011;10126;50.876;4.470;2022-07-11T04:09:21;0.20;;;0.20;;
19927;SDS011;10126;50.876;4.470;2022-07-11T04:11:25;0.20;;;0.20;;
19927;SDS011;10126;50.876;4.470;2022-07-11T04:13:25;0.10;;;0.10;;
19927;SDS011;10126;50.876;4.470;2022-07-11T04:15:26;0.20;;;0.20;;
19927;SDS011;10126;50.876;4.470;2022-07-11T04:17:27;0.20;;;0.20;;
19927;SDS011;10126;50.876;4.470;2022-07-11T04:19:28;0.20;;;0.20;;
19927;SDS011;10126;50.876;4.470;2022-07-11T04:21:29;0.10;;;0.10;;
19927;SDS011;10126;50.876;4.470;2022-07-11T04:23:29;0.10;;;0.10;;
19927;SDS011;10126;50.876;4.470;2022-07-11T04:25:30;0.20;;;0.20;;
19927;SDS011;10126;50.876;4.470;2022-07-11T04:27:30;0.10;;;0.10;;
19927;SDS011;10126;50.876;4.470;2022-07-11T04:29:31;0.20;;;0.20;;
19927;SDS011;10126;50.876;4.470;2022-07-11T04:31:32;0.23;;;0.23;;
19927;SDS011;10126;50.876;4.470;2022-07-11T04:33:32;0.20;;;0.20;;
19927;SDS011;10126;50.876;4.470;2022-07-11T04:35:33;0.20;;;0.20;;
19927;SDS011;10126;50.876;4.470;2022-07-11T04:37:34;0.10;;;0.10;;
19927;SDS011;10126;50.876;4.470;2022-07-11T04:39:34;0.20;;;0.20;;
19927;SDS011;10126;50.876;4.470;2022-07-11T04:41:35;0.20;;;0.20;;
19927;SDS011;10126;50.876;4.470;2022-07-11T04:43:36;0.10;;;0.10;;
19927;SDS011;10126;50.876;4.470;2022-07-11T04:45:37;0.20;;;0.20;;
19927;SDS011;10126;50.876;4.470;2022-07-11T04:47:39;0.10;;;0.10;;
19927;SDS011;10126;50.876;4.470;2022-07-11T04:49:39;0.10;;;0.10;;
19927;SDS011;10126;50.876;4.470;2022-07-11T04:51:40;0.10;;;0.10;;
19927;SDS011;10126;50.876;4.470;2022-07-11T04:53:41;0.10;;;0.10;;
19927;SDS011;10126;50.876;4.470;2022-07-11T04:55:41;0.10;;;0.10;;
19927;SDS011;10126;50.876;4.470;2022-07-11T04:57:42;0.10;;;0.10;;
19927;SDS011;10126;50.876;4.470;2022-07-11T04:59:42;0.10;;;0.10;;
19927;SDS011;10126;50.876;4.470;2022-07-11T05:01:43;0.10;;;0.10;;
19927;SDS011;10126;50.876;4.470;2022-07-11T05:03:44;0.10;;;0.10;;
19927;SDS011;10126;50.876;4.470;2022-07-11T05:05:45;0.00;;;0.00;;
19927;SDS011;10126;50.876;4.470;2022-07-11T05:07:45;0.00;;;0.00;;
19927;SDS011;10126;50.876;4.470;2022-07-11T05:09:46;0.10;;;0.10;;
19927;SDS011;10126;50.876;4.470;2022-07-11T05:11:47;0.00;;;0.00;;
19927;SDS011;10126;50.876;4.470;2022-07-11T05:13:48;0.03;;;0.03;;
19927;SDS011;10126;50.876;4.470;2022-07-11T05:15:48;0.10;;;0.10;;
19927;SDS011;10126;50.876;4.470;2022-07-11T05:17:49;0.10;;;0.10;;
19927;SDS011;10126;50.876;4.470;2022-07-11T05:19:50;0.00;;;0.00;;
19927;SDS011;10126;50.876;4.470;2022-07-11T05:21:50;0.00;;;0.00;;
19927;SDS011;10126;50.876;4.470;2022-07-11T05:23:51;0.00;;;0.00;;
19927;SDS011;10126;50.876;4.470;2022-07-11T05:25:51;0.00;;;0.00;;
19927;SDS011;10126;50.876;4.470;2022-07-11T05:27:52;0.00;;;0.00;;
19927;SDS011;10126;50.876;4.470;2022-07-11T05:29:53;0.08;;;0.08;;
19927;SDS011;10126;50.876;4.470;2022-07-11T05:31:53;0.00;;;0.00;;
19927;SDS011;10126;50.876;4.470;2022-07-11T05:33:54;0.00;;;0.00;;
19927;SDS011;10126;50.876;4.470;2022-07-11T05:35:54;0.00;;;0.00;;
19927;SDS011;10126;50.876;4.470;2022-07-11T05:37:55;0.00;;;0.00;;
19927;SDS011;10126;50.876;4.470;2022-07-11T05:39:56;0.10;;;0.10;;
19927;SDS011;10126;50.876;4.470;2022-07-11T05:41:56;0.00;;;0.00;;
19927;SDS011;10126;50.876;4.470;2022-07-11T05:43:57;0.00;;;0.00;;
19927;SDS011;10126;50.876;4.470;2022-07-11T05:45:58;0.00;;;0.00;;
19927;SDS011;10126;50.876;4.470;2022-07-11T05:47:58;0.00;;;0.00;;
19927;SDS011;10126;50.876;4.470;2022-07-11T05:49:59;0.00;;;0.00;;
19927;SDS011;10126;50.876;4.470;2022-07-11T05:52:00;0.10;;;0.10;;
19927;SDS011;10126;50.876;4.470;2022-07-11T05:54:02;0.00;;;0.00;;
19927;SDS011;10126;50.876;4.470;2022-07-11T05:56:03;0.00;;;0.00;;
19927;SDS011;10126;50.876;4.470;2022-07-11T05:58:03;0.00;;;0.00;;
19927;SDS011;10126;50.876;4.470;2022-07-11T06:00:04;0.03;;;0.03;;
19927;SDS011;10126;50.876;4.470;2022-07-11T06:02:05;0.00;;;0.00;;
19927;SDS011;10126;50.876;4.470;2022-07-11T06:04:07;0.00;;;0.00;;
19927;SDS011;10126;50.876;4.470;2022-07-11T06:06:08;0.00;;;0.00;;
19927;SDS011;10126;50.876;4.470;2022-07-11T06:08:10;0.00;;;0.00;;
19927;SDS011;10126;50.876;4.470;2022-07-11T06:10:29;0.00;;;0.00;;
19927;SDS011;10126;50.876;4.470;2022-07-11T06:12:32;0.00;;;0.00;;
19927;SDS011;10126;50.876;4.470;2022-07-11T06:14:32;0.00;;;0.00;;
19927;SDS011;10126;50.876;4.470;2022-07-11T06:16:33;0.00;;;0.00;;
19927;SDS011;10126;50.876;4.470;2022-07-11T06:18:35;0.00;;;0.00;;
19927;SDS011;10126;50.876;4.470;2022-07-11T06:20:36;0.00;;;0.00;;
19927;SDS011;10126;50.876;4.470;2022-07-11T06:22:37;0.00;;;0.00;;
19927;SDS011;10126;50.876;4.470;2022-07-11T06:24:37;0.00;;;0.00;;
19927;SDS011;10126;50.876;4.470;2022-07-11T06:26:38;0.00;;;0.00;;
19927;SDS011;10126;50.876;4.470;2022-07-11T06:28:39;0.00;;;0.00;;
19927;SDS011;10126;50.876;4.470;2022-07-11T06:30:40;0.00;;;0.00;;
19927;SDS011;10126;50.876;4.470;2022-07-11T06:32:40;0.00;;;0.00;;
19927;SDS011;10126;50.876;4.470;2022-07-11T06:34:41;0.00;;;0.00;;
19927;SDS011;10126;50.876;4.470;2022-07-11T06:36:42;0.00;;;0.00;;
19927;SDS011;10126;50.876;4.470;2022-07-11T06:38:45;0.00;;;0.00;;
19927;SDS011;10126;50.876;4.470;2022-07-11T06:40:46;0.00;;;0.00;;
19927;SDS011;10126;50.876;4.470;2022-07-11T06:42:47;0.00;;;0.00;;
19927;SDS011;10126;50.876;4.470;2022-07-11T06:44:48;0.00;;;0.00;;
19927;SDS011;10126;50.876;4.470;2022-07-11T06:46:48;0.00;;;0.00;;
19927;SDS011;10126;50.876;4.470;2022-07-11T06:48:52;0.00;;;0.00;;
19927;SDS011;10126;50.876;4.470;2022-07-11T06:50:52;0.00;;;0.00;;
19927;SDS011;10126;50.876;4.470;2022-07-11T06:52:53;0.00;;;0.00;;
19927;SDS011;10126;50.876;4.470;2022-07-11T06:54:54;0.10;;;0.10;;
19927;SDS011;10126;50.876;4.470;2022-07-11T06:56:54;0.00;;;0.00;;
19927;SDS011;10126;50.876;4.470;2022-07-11T06:58:55;0.00;;;0.00;;
19927;SDS011;10126;50.876;4.470;2022-07-11T07:00:56;0.00;;;0.00;;
19927;SDS011;10126;50.876;4.470;2022-07-11T07:02:57;0.00;;;0.00;;
19927;SDS011;10126;50.876;4.470;2022-07-11T07:04:58;0.00;;;0.00;;
19927;SDS011;10126;50.876;4.470;2022-07-11T07:06:59;0.00;;;0.00;;
19927;SDS011;10126;50.876;4.470;2022-07-11T07:09:01;0.00;;;0.00;;
19927;SDS011;10126;50.876;4.470;2022-07-11T07:11:03;0.00;;;0.00;;
19927;SDS011;10126;50.876;4.470;2022-07-11T07:13:04;0.00;;;0.00;;
19927;SDS011;10126;50.876;4.470;2022-07-11T07:15:04;0.00;;;0.00;;
19927;SDS011;10126;50.876;4.470;2022-07-11T07:17:05;0.00;;;0.00;;
19927;SDS011;10126;50.876;4.470;2022-07-11T07:19:06;0.03;;;0.03;;
19927;SDS011;10126;50.876;4.470;2022-07-11T07:21:07;0.00;;;0.00;;
19927;SDS011;10126;50.876;4.470;2022-07-11T07:23:08;0.00;;;0.00;;
19927;SDS011;10126;50.876;4.470;2022-07-11T07:25:08;0.00;;;0.00;;
19927;SDS011;10126;50.876;4.470;2022-07-11T07:27:09;0.00;;;0.00;;
19927;SDS011;10126;50.876;4.470;2022-07-11T07:29:10;0.00;;;0.00;;
19927;SDS011;10126;50.876;4.470;2022-07-11T07:31:10;0.00;;;0.00;;
19927;SDS011;10126;50.876;4.470;2022-07-11T07:33:12;0.00;;;0.00;;
19927;SDS011;10126;50.876;4.470;2022-07-11T07:35:12;0.00;;;0.00;;
19927;SDS011;10126;50.876;4.470;2022-07-11T07:37:13;0.00;;;0.00;;
19927;SDS011;10126;50.876;4.470;2022-07-11T07:39:14;0.00;;;0.00;;
19927;SDS011;10126;50.876;4.470;2022-07-11T07:41:15;0.00;;;0.00;;
19927;SDS011;10126;50.876;4.470;2022-07-11T07:43:16;0.00;;;0.00;;
19927;SDS011;10126;50.876;4.470;2022-07-11T07:45:16;0.00;;;0.00;;
19927;SDS011;10126;50.876;4.470;2022-07-11T07:47:17;0.00;;;0.00;;
19927;SDS011;10126;50.876;4.470;2022-07-11T07:49:18;0.00;;;0.00;;
19927;SDS011;10126;50.876;4.470;2022-07-11T07:51:18;0.00;;;0.00;;
19927;SDS011;10126;50.876;4.470;2022-07-11T07:53:20;0.00;;;0.00;;
19927;SDS011;10126;50.876;4.470;2022-07-11T07:55:21;0.00;;;0.00;;
19927;SDS011;10126;50.876;4.470;2022-07-11T07:57:22;0.00;;;0.00;;
19927;SDS011;10126;50.876;4.470;2022-07-11T07:59:22;0.00;;;0.00;;
19927;SDS011;10126;50.876;4.470;2022-07-11T08:01:25;0.00;;;0.00;;
19927;SDS011;10126;50.876;4.470;2022-07-11T08:03:38;0.00;;;0.00;;
19927;SDS011;10126;50.876;4.470;2022-07-11T08:05:39;0.00;;;0.00;;
19927;SDS011;10126;50.876;4.470;2022-07-11T08:07:39;0.00;;;0.00;;
19927;SDS011;10126;50.876;4.470;2022-07-11T08:09:40;0.00;;;0.00;;
19927;SDS011;10126;50.876;4.470;2022-07-11T08:11:41;0.00;;;0.00;;
19927;SDS011;10126;50.876;4.470;2022-07-11T08:13:42;0.00;;;0.00;;
19927;SDS011;10126;50.876;4.470;2022-07-11T08:15:43;0.00;;;0.00;;
19927;SDS011;10126;50.876;4.470;2022-07-11T08:17:47;0.00;;;0.00;;
19927;SDS011;10126;50.876;4.470;2022-07-11T08:19:47;0.00;;;0.00;;
19927;SDS011;10126;50.876;4.470;2022-07-11T08:21:48;0.00;;;0.00;;
19927;SDS011;10126;50.876;4.470;2022-07-11T08:23:48;0.00;;;0.00;;
19927;SDS011;10126;50.876;4.470;2022-07-11T08:25:49;0.00;;;0.00;;
19927;SDS011;10126;50.876;4.470;2022-07-11T08:27:50;0.00;;;0.00;;
19927;SDS011;10126;50.876;4.470;2022-07-11T08:29:50;0.00;;;0.00;;
19927;SDS011;10126;50.876;4.470;2022-07-11T08:31:51;0.00;;;0.00;;
19927;SDS011;10126;50.876;4.470;2022-07-11T08:33:52;0.00;;;0.00;;
19927;SDS011;10126;50.876;4.470;2022-07-11T08:35:52;0.00;;;0.00;;
19927;SDS011;10126;50.876;4.470;2022-07-11T08:37:53;0.00;;;0.00;;
19927;SDS011;10126;50.876;4.470;2022-07-11T08:39:53;0.00;;;0.00;;
19927;SDS011;10126;50.876;4.470;2022-07-11T08:41:54;0.00;;;0.00;;
19927;SDS011;10126;50.876;4.470;2022-07-11T08:43:56;0.00;;;0.00;;
19927;SDS011;10126;50.876;4.470;2022-07-11T08:45:58;0.00;;;0.00;;
19927;SDS011;10126;50.876;4.470;2022-07-11T08:48:00;0.00;;;0.00;;
19927;SDS011;10126;50.876;4.470;2022-07-11T08:50:01;0.00;;;0.00;;
19927;SDS011;10126;50.876;4.470;2022-07-11T08:52:03;0.00;;;0.00;;
19927;SDS011;10126;50.876;4.470;2022-07-11T08:54:07;0.00;;;0.00;;
19927;SDS011;10126;50.876;4.470;2022-07-11T08:56:08;0.00;;;0.00;;
19927;SDS011;10126;50.876;4.470;2022-07-11T08:58:10;0.00;;;0.00;;
19927;SDS011;10126;50.876;4.470;2022-07-11T09:00:13;0.00;;;0.00;;
19927;SDS011;10126;50.876;4.470;2022-07-11T09:02:13;0.00;;;0.00;;
19927;SDS011;10126;50.876;4.470;2022-07-11T09:04:14;0.00;;;0.00;;
19927;SDS011;10126;50.876;4.470;2022-07-11T09:06:15;0.00;;;0.00;;
19927;SDS011;10126;50.876;4.470;2022-07-11T09:08:16;0.00;;;0.00;;
19927;SDS011;10126;50.876;4.470;2022-07-11T09:10:17;0.00;;;0.00;;
19927;SDS011;10126;50.876;4.470;2022-07-11T09:12:18;0.00;;;0.00;;
19927;SDS011;10126;50.876;4.470;2022-07-11T09:14:24;0.00;;;0.00;;
19927;SDS011;10126;50.876;4.470;2022-07-11T09:16:29;0.00;;;0.00;;
19927;SDS011;10126;50.876;4.470;2022-07-11T09:18:32;0.00;;;0.00;;
19927;SDS011;10126;50.876;4.470;2022-07-11T09:23:21;0.00;;;0.00;;
19927;SDS011;10126;50.876;4.470;2022-07-11T09:25:43;0.00;;;0.00;;
19927;SDS011;10126;50.876;4.470;2022-07-11T09:27:48;0.00;;;0.00;;
19927;SDS011;10126;50.876;4.470;2022-07-11T09:29:50;0.00;;;0.00;;
19927;SDS011;10126;50.876;4.470;2022-07-11T09:31:51;0.00;;;0.00;;
19927;SDS011;10126;50.876;4.470;2022-07-11T09:34:02;0.00;;;0.00;;
19927;SDS011;10126;50.876;4.470;2022-07-11T09:36:04;0.00;;;0.00;;
19927;SDS011;10126;50.876;4.470;2022-07-11T09:38:05;0.00;;;0.00;;
19927;SDS011;10126;50.876;4.470;2022-07-11T09:40:11;0.00;;;0.00;;
19927;SDS011;10126;50.876;4.470;2022-07-11T09:42:13;0.00;;;0.00;;
19927;SDS011;10126;50.876;4.470;2022-07-11T09:44:14;0.00;;;0.00;;
19927;SDS011;10126;50.876;4.470;2022-07-11T09:46:22;0.00;;;0.00;;
19927;SDS011;10126;50.876;4.470;2022-07-11T09:48:24;0.00;;;0.00;;
19927;SDS011;10126;50.876;4.470;2022-07-11T09:50:30;0.00;;;0.00;;
19927;SDS011;10126;50.876;4.470;2022-07-11T09:52:31;0.00;;;0.00;;
19927;SDS011;10126;50.876;4.470;2022-07-11T09:54:32;0.00;;;0.00;;
19927;SDS011;10126;50.876;4.470;2022-07-11T09:56:43;0.00;;;0.00;;
19927;SDS011;10126;50.876;4.470;2022-07-11T09:58:45;0.00;;;0.00;;
19927;SDS011;10126;50.876;4.470;2022-07-11T10:00:59;0.00;;;0.00;;
19927;SDS011;10126;50.876;4.470;2022-07-11T10:03:00;0.00;;;0.00;;
19927;SDS011;10126;50.876;4.470;2022-07-11T10:05:01;0.00;;;0.00;;
19927;SDS011;10126;50.876;4.470;2022-07-11T10:07:03;0.00;;;0.00;;
19927;SDS011;10126;50.876;4.470;2022-07-11T10:09:04;0.00;;;0.00;;
19927;SDS011;10126;50.876;4.470;2022-07-11T10:11:06;0.00;;;0.00;;
19927;SDS011;10126;50.876;4.470;2022-07-11T10:13:06;0.00;;;0.00;;
19927;SDS011;10126;50.876;4.470;2022-07-11T10:15:09;0.00;;;0.00;;
19927;SDS011;10126;50.876;4.470;2022-07-11T10:17:15;0.00;;;0.00;;
19927;SDS011;10126;50.876;4.470;2022-07-11T10:21:45;0.00;;;0.00;;
19927;SDS011;10126;50.876;4.470;2022-07-11T10:23:54;0.00;;;0.00;;
19927;SDS011;10126;50.876;4.470;2022-07-11T10:28:43;0.00;;;0.00;;
19927;SDS011;10126;50.876;4.470;2022-07-11T10:30:49;0.00;;;0.00;;
19927;SDS011;10126;50.876;4.470;2022-07-11T10:32:57;0.00;;;0.00;;
19927;SDS011;10126;50.876;4.470;2022-07-11T10:35:08;0.00;;;0.00;;
19927;SDS011;10126;50.876;4.470;2022-07-11T10:37:10;0.00;;;0.00;;
19927;SDS011;10126;50.876;4.470;2022-07-11T10:39:15;0.00;;;0.00;;
19927;SDS011;10126;50.876;4.470;2022-07-11T10:41:20;0.00;;;0.00;;
19927;SDS011;10126;50.876;4.470;2022-07-11T10:45:22;0.00;;;0.00;;
19927;SDS011;10126;50.876;4.470;2022-07-11T10:47:33;0.00;;;0.00;;
19927;SDS011;10126;50.876;4.470;2022-07-11T10:49:43;0.00;;;0.00;;
19927;SDS011;10126;50.876;4.470;2022-07-11T10:51:57;0.00;;;0.00;;
19927;SDS011;10126;50.876;4.470;2022-07-11T10:58:42;0.10;;;0.10;;
19927;SDS011;10126;50.876;4.470;2022-07-11T11:00:43;0.00;;;0.00;;
19927;SDS011;10126;50.876;4.470;2022-07-11T11:03:03;0.00;;;0.00;;
19927;SDS011;10126;50.876;4.470;2022-07-11T11:05:05;0.10;;;0.10;;
19927;SDS011;10126;50.876;4.470;2022-07-11T11:07:06;0.10;;;0.10;;
19927;SDS011;10126;50.876;4.470;2022-07-11T11:09:36;0.10;;;0.10;;
19927;SDS011;10126;50.876;4.470;2022-07-11T11:11:38;0.00;;;0.00;;
19927;SDS011;10126;50.876;4.470;2022-07-11T11:13:39;0.00;;;0.00;;
19927;SDS011;10126;50.876;4.470;2022-07-11T11:15:46;0.08;;;0.08;;
19927;SDS011;10126;50.876;4.470;2022-07-11T11:17:52;0.00;;;0.00;;
19927;SDS011;10126;50.876;4.470;2022-07-11T11:19:53;0.05;;;0.05;;
19927;SDS011;10126;50.876;4.470;2022-07-11T11:22:00;0.10;;;0.10;;
19927;SDS011;10126;50.876;4.470;2022-07-11T11:24:11;0.00;;;0.00;;
19927;SDS011;10126;50.876;4.470;2022-07-11T11:28:19;0.00;;;0.00;;
19927;SDS011;10126;50.876;4.470;2022-07-11T11:30:20;0.00;;;0.00;;
19927;SDS011;10126;50.876;4.470;2022-07-11T11:32:22;0.00;;;0.00;;
19927;SDS011;10126;50.876;4.470;2022-07-11T11:34:29;0.00;;;0.00;;
19927;SDS011;10126;50.876;4.470;2022-07-11T11:36:33;0.00;;;0.00;;
19927;SDS011;10126;50.876;4.470;2022-07-11T11:38:34;0.08;;;0.08;;
19927;SDS011;10126;50.876;4.470;2022-07-11T11:40:45;0.10;;;0.10;;
19927;SDS011;10126;50.876;4.470;2022-07-11T11:42:49;0.00;;;0.00;;
19927;SDS011;10126;50.876;4.470;2022-07-11T11:44:51;0.00;;;0.00;;
19927;SDS011;10126;50.876;4.470;2022-07-11T11:46:56;0.10;;;0.10;;
19927;SDS011;10126;50.876;4.470;2022-07-11T11:48:57;0.00;;;0.00;;
19927;SDS011;10126;50.876;4.470;2022-07-11T11:51:09;0.00;;;0.00;;
19927;SDS011;10126;50.876;4.470;2022-07-11T11:53:20;0.00;;;0.00;;
19927;SDS011;10126;50.876;4.470;2022-07-11T11:55:20;0.10;;;0.10;;
19927;SDS011;10126;50.876;4.470;2022-07-11T11:57:22;0.00;;;0.00;;
19927;SDS011;10126;50.876;4.470;2022-07-11T11:59:30;0.00;;;0.00;;
19927;SDS011;10126;50.876;4.470;2022-07-11T12:01:32;0.00;;;0.00;;
19927;SDS011;10126;50.876;4.470;2022-07-11T12:03:45;0.00;;;0.00;;
19927;SDS011;10126;50.876;4.470;2022-07-11T12:05:53;0.10;;;0.10;;
19927;SDS011;10126;50.876;4.470;2022-07-11T12:07:55;0.00;;;0.00;;
19927;SDS011;10126;50.876;4.470;2022-07-11T12:09:56;0.00;;;0.00;;
19927;SDS011;10126;50.876;4.470;2022-07-11T12:12:01;0.10;;;0.10;;
19927;SDS011;10126;50.876;4.470;2022-07-11T12:14:20;0.00;;;0.00;;
19927;SDS011;10126;50.876;4.470;2022-07-11T12:16:21;0.10;;;0.10;;
19927;SDS011;10126;50.876;4.470;2022-07-11T12:18:41;0.10;;;0.10;;
19927;SDS011;10126;50.876;4.470;2022-07-11T12:20:42;0.10;;;0.10;;
19927;SDS011;10126;50.876;4.470;2022-07-11T12:22:47;0.00;;;0.00;;
19927;SDS011;10126;50.876;4.470;2022-07-11T12:24:48;0.00;;;0.00;;
19927;SDS011;10126;50.876;4.470;2022-07-11T12:26:50;0.00;;;0.00;;
19927;SDS011;10126;50.876;4.470;2022-07-11T12:31:07;0.00;;;0.00;;
19927;SDS011;10126;50.876;4.470;2022-07-11T12:33:09;0.10;;;0.10;;
19927;SDS011;10126;50.876;4.470;2022-07-11T12:35:13;0.00;;;0.00;;